createdAt,value
2017-08-29T18:34:37.020Z,27.50
2017-08-29T18:37:03.937Z,27.30
2017-08-29T18:39:30.854Z,27.20
2017-08-29T18:41:57.744Z,26.60
2017-08-29T18:44:24.625Z,26.50
2017-08-29T18:46:51.503Z,26.60
2017-08-29T18:49:18.392Z,26.00
2017-08-29T18:51:45.270Z,26.00
2017-08-29T18:54:12.129Z,26.00
2017-08-29T18:56:39.195Z,26.00
2017-08-29T18:59:06.171Z,25.90
2017-08-29T19:01:33.023Z,25.60
2017-08-29T19:03:59.890Z,25.70
2017-08-29T19:06:26.802Z,25.40
2017-08-29T19:08:53.653Z,25.20
2017-08-29T19:11:20.842Z,25.10
2017-08-29T19:13:47.748Z,25.20
2017-08-29T19:16:14.807Z,24.90
2017-08-29T19:18:41.811Z,24.80
2017-08-29T19:21:08.765Z,24.50
2017-08-29T19:23:35.669Z,24.50
2017-08-29T19:26:02.596Z,24.60
2017-08-29T19:28:29.543Z,24.70
2017-08-29T19:30:56.458Z,24.40
2017-08-29T19:33:23.535Z,24.50
2017-08-29T19:35:50.488Z,24.40
2017-08-29T19:38:17.391Z,24.30
2017-08-29T19:40:44.294Z,24.20
2017-08-29T19:43:11.474Z,24.30
2017-08-29T19:45:38.417Z,24.30
2017-08-29T19:48:05.340Z,24.00
2017-08-29T19:50:32.264Z,24.00
2017-08-29T19:52:59.193Z,23.70
2017-08-29T19:55:26.111Z,23.60
2017-08-29T19:57:53.040Z,23.50
2017-08-29T20:00:19.967Z,23.60
2017-08-29T20:02:47.627Z,23.50
2017-08-29T20:05:14.535Z,23.50
2017-08-29T20:07:41.570Z,23.50
2017-08-29T20:10:08.455Z,23.30
2017-08-29T20:12:35.391Z,23.20
2017-08-29T20:15:02.629Z,23.10
2017-08-29T20:17:29.522Z,23.10
2017-08-29T20:19:56.406Z,23.10
2017-08-29T20:22:23.376Z,23.10
2017-08-29T20:24:50.710Z,23.20
2017-08-29T20:27:17.908Z,23.00
2017-08-29T20:29:44.881Z,23.00
2017-08-29T20:32:11.963Z,23.00
2017-08-29T20:34:38.827Z,22.80
2017-08-29T20:37:06.215Z,22.90
2017-08-29T20:39:34.460Z,22.80
2017-08-29T20:42:01.482Z,22.70
2017-08-29T20:44:28.374Z,22.50
2017-08-29T20:46:55.322Z,22.70
2017-08-29T20:49:22.274Z,22.80
2017-08-29T20:51:49.207Z,22.40
2017-08-29T20:54:16.132Z,22.40
2017-08-29T20:56:43.047Z,22.50
2017-08-29T20:59:09.951Z,22.40
2017-08-29T21:01:36.840Z,22.60
2017-08-29T21:04:03.764Z,22.40
2017-08-29T21:06:30.693Z,22.10
2017-08-29T21:09:01.318Z,22.00
2017-08-29T21:11:28.478Z,22.20
2017-08-29T21:13:55.374Z,22.10
2017-08-29T21:16:22.354Z,22.00
2017-08-29T21:18:49.307Z,21.90
2017-08-29T21:21:16.257Z,21.80
2017-08-29T21:23:43.183Z,21.80
2017-08-29T21:26:10.117Z,21.70
2017-08-29T21:28:36.998Z,21.70
2017-08-29T21:31:03.898Z,21.80
2017-08-29T21:33:30.804Z,21.60
2017-08-29T21:35:57.749Z,21.80
2017-08-29T21:38:24.636Z,21.90
2017-08-29T21:40:51.519Z,21.80
2017-08-29T21:43:18.425Z,21.60
2017-08-29T21:45:45.344Z,21.60
2017-08-29T21:48:12.226Z,21.60
2017-08-29T21:50:40.594Z,21.70
2017-08-29T21:53:08.199Z,21.80
2017-08-29T21:55:35.435Z,21.70
2017-08-29T21:58:02.716Z,21.60
2017-08-29T22:00:29.701Z,21.50
2017-08-29T22:02:56.584Z,21.30
2017-08-29T22:05:23.519Z,21.10
2017-08-29T22:07:50.434Z,21.10
2017-08-29T22:10:17.327Z,21.30
2017-08-29T22:12:44.247Z,21.50
2017-08-29T22:15:11.169Z,21.50
2017-08-29T22:17:38.192Z,21.40
2017-08-29T22:20:05.063Z,21.90
2017-08-29T22:22:31.959Z,22.20
2017-08-29T22:24:58.886Z,22.40
2017-08-29T22:27:25.775Z,22.30
2017-08-29T22:29:52.683Z,22.60
2017-08-29T22:32:25.374Z,22.60
2017-08-29T22:34:52.277Z,22.50
2017-08-29T22:37:19.196Z,22.30
2017-08-29T22:39:46.247Z,22.30
2017-08-29T22:42:13.152Z,22.10
2017-08-29T22:44:40.015Z,21.90
2017-08-29T22:47:06.891Z,22.10
2017-08-29T22:49:35.805Z,22.00
2017-08-29T22:52:02.682Z,21.80
2017-08-29T22:54:29.948Z,21.40
2017-08-29T22:56:56.814Z,21.40
2017-08-29T22:59:27.044Z,21.60
2017-08-29T23:01:54.055Z,21.40
2017-08-29T23:04:20.955Z,21.20
2017-08-29T23:06:47.837Z,21.30
2017-08-29T23:09:14.735Z,21.20
2017-08-29T23:11:41.762Z,21.50
2017-08-29T23:14:08.708Z,21.50
2017-08-29T23:16:35.948Z,21.80
2017-08-29T23:19:02.867Z,21.80
2017-08-29T23:21:29.769Z,21.60
2017-08-29T23:23:56.656Z,21.40
2017-08-29T23:26:23.518Z,21.30
2017-08-29T23:28:50.453Z,21.20
2017-08-29T23:31:17.332Z,21.50
2017-08-29T23:33:44.216Z,21.30
2017-08-29T23:36:11.121Z,21.50
2017-08-29T23:38:37.975Z,21.40
2017-08-29T23:41:04.902Z,21.70
2017-08-29T23:43:31.775Z,21.50
2017-08-29T23:45:58.658Z,21.40
2017-08-29T23:48:25.594Z,21.80
2017-08-29T23:50:52.484Z,21.60
2017-08-29T23:53:19.362Z,21.40
2017-08-29T23:55:46.241Z,21.30
2017-08-29T23:58:13.113Z,21.40
